Jaguaripe, Brazil
Current Conditions -  °F | °C
As of 11:00 AM on Tuesday 21 Oct 2014 (Local Time) from SBSV Reporting Station
Broken Clouds Broken Clouds  
Wind Chill: 82°   Ceiling: 9000
Heat Index: 86°   Visibility: 6mi
Dew Point: 70°   Wind: 15mph
Humidity: 66%   Direction: 90°E
Pressure: 30"   Gusts: NA
Location:  13.11°S, 38.9°W
Report Text: SBSV 211400Z 09013KT 9999 SCT017 BKN090 28/21 Q1016
Loading
Personal Weather Stations






























Interactive Weather Map
Tropical Storm Tracking
New forecast layout! Learn more

10-Day Weather Forecast

Advertisements
Track Severe Weather on mobile